Flinterbothnia — PBLG — position and weather

sailwx.info

Track history (hours):
 
Tides and Currents Weather Stations Pressure Air Temp Water Temp Dewpoint Dewpoint Depression Visibility Wind Speed Wind Dir Waves Ship Positions

Flinterbothnia

Last reported at 2016-Aug-30 14:21 UTC. Time now 2016-Aug-30 22:35 UTC.
Position N 45°58' W 001°02'.

Length 82 m; draft 4.7 m.

Type: Ship (hazmat cat C). MMSI: 244741000.

Date/timePositionNaut miles runAvg speedWind from/ knotsBaromVisibWave heightAir tempDewpointWater temp
2016-Aug-30 14:21N 45°58' W 001°02'7 9.4
2016-Aug-30 13:33N 46°01' W 001°12'8 7.9
2016-Aug-30 12:33N 46°06' W 001°21'8 8.2
2016-Aug-30 11:32N 46°07' W 001°33'9 9.1
2016-Aug-30 10:33N 46°10' W 001°45'9 9.0
2016-Aug-30 09:33N 46°16' W 001°55'9 9.0
2016-Aug-30 08:33N 46°21' W 002°05'9 8.9
2016-Aug-30 07:33N 46°27' W 002°16'9 9.0
2016-Aug-30 06:33N 46°32' W 002°26'9 8.7
2016-Aug-30 05:33N 46°38' W 002°36'9 8.9
2016-Aug-30 04:33N 46°43' W 002°46'9 8.9
2016-Aug-30 03:31N 46°49' W 002°56'9 8.9
2016-Aug-30 02:33N 46°55' W 003°06'9 8.9
2016-Aug-30 01:33N 47°00' W 003°16'9 9.0
2016-Aug-30 00:33N 47°06' W 003°26'9 8.8
2016-Aug-29 23:33N 47°12' W 003°36'8 8.6
2016-Aug-29 22:33N 47°17' W 003°46'9 8.8
2016-Aug-29 21:32N 47°23' W 003°56'9 8.7
2016-Aug-29 20:31N 47°28' W 004°06'9 8.8
2016-Aug-29 19:30N 47°34' W 004°16'9 8.9
2016-Aug-29 18:31N 47°39' W 004°27'18 9.1
2016-Aug-29 16:33N 47°51' W 004°47'10 9.8
2016-Aug-29 15:33N 47°57' W 004°58'10 9.6
2016-Aug-29 14:34N 48°03' W 005°09'9 8.7
2016-Aug-29 13:30N 48°09' W 005°20'41 8.3
2016-Aug-29 08:33N 48°45' W 005°52'1110.0
2016-Aug-29 07:28N 48°53' W 005°43'1010.4
2016-Aug-29 06:33N 48°58' W 005°30'10 9.7
2016-Aug-29 05:33N 49°03' W 005°17'9 9.3
2016-Aug-29 04:33N 49°08' W 005°05'9 8.7
2016-Aug-29 03:28N 49°12' W 004°52'62 8.7
2016-Aug-28 20:20N 49°45' W 003°30'8 9.1
2016-Aug-28 19:26N 49°48' W 003°19'16 7.9
2016-Aug-28 17:25N 49°56' W 002°57'6 6.8
2016-Aug-28 16:29N 49°58' W 002°48'97 8.8
2016-Aug-28 05:28N 50°28' W 000°23'7 7.8
2016-Aug-28 04:33N 50°30' W 000°12'8 8.0
2016-Aug-28 03:33N 50°32' E 000°00'8 8.6
2016-Aug-28 02:33N 50°35' E 000°13'10 9.6
2016-Aug-28 01:33N 50°38' E 000°27'2110.2
2016-Aug-27 23:31N 50°48' E 000°55'10 9.7
2016-Aug-27 22:31N 50°54' E 001°08'9 9.0
2016-Aug-27 21:33N 50°60' E 001°18'8 8.0
2016-Aug-27 20:33N 51°05' E 001°28'8 7.9
2016-Aug-27 19:33N 51°10' E 001°38'8 8.3
2016-Aug-27 18:33N 51°16' E 001°47'9 9.5
2016-Aug-27 17:33N 51°24' E 001°56'1110.7
2016-Aug-27 16:33N 51°32' E 002°06'1111.1
2016-Aug-27 15:33N 51°41' E 002°18'1111.1
2016-Aug-27 14:33N 51°49' E 002°29'1010.5
2016-Aug-27 13:33N 51°58' E 002°39'22 9.3
2016-Aug-27 11:14N 52°15' E 003°01'6 8.7
2016-Aug-27 10:32N 52°19' E 003°07'10 8.5
2016-Aug-27 09:20N 52°27' E 003°18'7 8.6
2016-Aug-27 08:33N 52°33' E 003°25'9 9.2
2016-Aug-27 07:33N 52°40' E 003°34'1010.0
2016-Aug-27 06:33N 52°47' E 003°45'2210.6
2016-Aug-27 04:31N 53°03' E 004°10'1010.6
2016-Aug-27 03:32N 53°10' E 004°22'1010.0
2016-Aug-27 02:33N 53°19' E 004°30'10 9.3
2016-Aug-27 01:28N 53°27' E 004°39'8 8.9
2016-Aug-27 00:33N 53°31' E 004°51'8 8.5
2016-Aug-26 23:34N 53°34' E 005°05'9 8.8
2016-Aug-26 22:33N 53°37' E 005°19'10 9.6
2016-Aug-26 21:33N 53°40' E 005°34'1010.3
2016-Aug-26 20:33N 53°43' E 005°51'1010.5
2016-Aug-26 19:34N 53°46' E 006°07'1010.3
2016-Aug-26 18:33N 53°49' E 006°24'10 9.9
2016-Aug-26 17:33N 53°52' E 006°40'9 9.3
2016-Aug-26 16:33N 53°54' E 006°56'9 8.7
2016-Aug-26 15:33N 53°56' E 007°10'9 8.4
2016-Aug-26 14:32N 53°58' E 007°24'8 8.4
2016-Aug-26 13:33N 54°00' E 007°38'9 8.7
2016-Aug-26 12:33N 54°01' E 007°52'9 9.4
2016-Aug-26 11:33N 54°01' E 008°08'1110.6
2016-Aug-26 10:33N 53°59' E 008°26'1110.9
2016-Aug-26 09:33N 53°54' E 008°42'1010.5
2016-Aug-26 08:33N 53°51' E 008°59'6 6.0
2016-Aug-26 07:34N 53°54' E 009°09'2 1.7
2016-Aug-26 06:33N 53°55' E 009°11'33 7.9
2016-Aug-26 02:20N 54°21' E 009°46'6 7.4
2016-Aug-26 01:33N 54°21' E 009°55'8 7.5
2016-Aug-26 00:33N 54°22' E 010°08'1 1.4
2016-Aug-25 23:33N 54°22' E 010°10'9 9.0
2016-Aug-25 22:31N 54°30' E 010°19'1010.1
2016-Aug-25 21:33N 54°34' E 010°35'1010.1
2016-Aug-25 20:33N 54°35' E 010°52'1010.1
2016-Aug-25 19:33N 54°35' E 011°09'1111.2
2016-Aug-25 18:33N 54°32' E 011°28'1110.5
2016-Aug-25 17:33N 54°28' E 011°45'1010.3
2016-Aug-25 16:33N 54°27' E 012°02'9 9.2
2016-Aug-25 15:33N 54°33' E 012°14'9 9.3
2016-Aug-25 14:33N 54°38' E 012°27'1110.7
2016-Aug-25 13:33N 54°40' E 012°45'1010.5
2016-Aug-25 12:33N 54°42' E 013°03'1010.5
2016-Aug-25 11:33N 54°43' E 013°21'1010.1
2016-Aug-25 10:33N 54°42' E 013°39'10 9.9
2016-Aug-25 09:33N 54°41' E 013°56'1010.4
2016-Aug-25 08:33N 54°39' E 014°13'1310.4
2016-Aug-25 07:19N 54°38' E 014°36'28 9.8
2016-Aug-25 04:30N 54°43' E 015°23'9 9.9
2016-Aug-25 03:33N 54°44' E 015°39'10 9.7
2016-Aug-25 02:33N 54°46' E 015°55'10 9.6
2016-Aug-25 01:31N 54°48' E 016°13'11 9.7
2016-Aug-25 00:23N 54°50' E 016°31'8 9.8
2016-Aug-24 23:33N 54°51' E 016°45'1010.0
2016-Aug-24 22:31N 54°53' E 017°03'1010.1
2016-Aug-24 21:33N 54°54' E 017°19'1010.1
2016-Aug-24 20:33N 54°54' E 017°37'1010.1
2016-Aug-24 19:33N 54°54' E 017°55'1010.2
2016-Aug-24 18:33N 54°53' E 018°12'1010.0
2016-Aug-24 17:33N 54°52' E 018°29'1010.3
2016-Aug-24 16:33N 54°46' E 018°44'10 9.5
2016-Aug-24 15:33N 54°40' E 018°57'10 9.9
2016-Aug-24 14:33N 54°32' E 018°48'9 9.2
2016-Aug-24 13:33N 54°32' E 018°32'0 0.2
2016-Aug-24 12:33N 54°32' E 018°31'0 0.0
2016-Aug-24 11:33N 54°32' E 018°31'0 0.0
2016-Aug-24 10:33N 54°32' E 018°31'0 0.0
2016-Aug-24 09:33N 54°32' E 018°31'0 0.0
2016-Aug-24 08:33N 54°32' E 018°31'0 0.0
2016-Aug-24 07:33N 54°32' E 018°31'0 0.0
2016-Aug-24 06:33N 54°32' E 018°31'0 0.0
2016-Aug-24 04:33N 54°32' E 018°31'0 0.0
2016-Aug-24 03:33N 54°32' E 018°31'0 0.0
2016-Aug-24 02:33N 54°32' E 018°31'0 0.0
2016-Aug-24 01:33N 54°32' E 018°31'0 0.0
2016-Aug-24 00:33N 54°32' E 018°31'0 0.0
2016-Aug-23 23:33N 54°32' E 018°31'0 0.0
2016-Aug-23 22:33N 54°32' E 018°31'0 0.0
2016-Aug-23 21:33N 54°32' E 018°31'0 0.0
2016-Aug-23 20:33N 54°32' E 018°31'0 0.0
2016-Aug-23 19:33N 54°32' E 018°31'0 0.0
2016-Aug-23 18:33N 54°32' E 018°31'0 0.0
2016-Aug-23 17:33N 54°32' E 018°31'0 0.0
2016-Aug-23 16:33N 54°32' E 018°31'0 0.0
2016-Aug-23 15:33N 54°32' E 018°31'0 0.0
2016-Aug-23 14:33N 54°32' E 018°31'0 0.0
2016-Aug-23 13:33N 54°32' E 018°31'0 0.0
2016-Aug-23 12:33N 54°32' E 018°31'0 0.0
2016-Aug-23 11:33N 54°32' E 018°31'0 0.0
2016-Aug-23 10:33N 54°32' E 018°31'0 0.0
2016-Aug-23 09:33N 54°32' E 018°31'0 0.0
2016-Aug-23 08:33N 54°32' E 018°31'0 0.0
2016-Aug-23 07:33N 54°32' E 018°31'0 0.0
2016-Aug-23 06:33N 54°32' E 018°31'0 0.0
2016-Aug-23 05:33N 54°32' E 018°31'0 0.0
2016-Aug-23 04:33N 54°32' E 018°31'0 0.0
2016-Aug-23 03:33N 54°32' E 018°31'0 0.0
2016-Aug-23 02:33N 54°32' E 018°31'0 0.0
2016-Aug-23 01:33N 54°32' E 018°31'0 0.0
2016-Aug-23 00:33N 54°32' E 018°31'0 0.0
2016-Aug-22 23:33N 54°32' E 018°31'0 0.0
2016-Aug-22 22:33N 54°32' E 018°31'0 0.0
2016-Aug-22 21:33N 54°32' E 018°31'0 0.0
2016-Aug-22 20:33N 54°32' E 018°31'5 4.7
2016-Aug-22 19:33N 54°32' E 018°39'9 8.8
2016-Aug-22 18:33N 54°36' E 018°53'7 7.2
2016-Aug-22 17:33N 54°43' E 018°50'10 9.5
2016-Aug-22 16:33N 54°49' E 018°37'10 9.6
2016-Aug-22 15:33N 54°53' E 018°21'1010.0
2016-Aug-22 14:32N 54°53' E 018°04'11 9.8
2016-Aug-22 13:23N 54°52' E 017°44'78 9.8
2016-Aug-22 05:27N 54°51' E 015°29'9 9.9
2016-Aug-22 04:33N 54°52' E 015°13'1010.1
2016-Aug-22 03:33N 54°54' E 014°56'1010.0
2016-Aug-22 02:33N 54°55' E 014°39'1010.3
2016-Aug-22 01:33N 54°57' E 014°21'1010.0
2016-Aug-22 00:33N 54°58' E 014°04'1010.2
2016-Aug-21 23:33N 55°01' E 013°47'10 9.6
2016-Aug-21 22:33N 55°05' E 013°32'10 9.9
2016-Aug-21 21:33N 55°09' E 013°16'10 9.9
2016-Aug-21 20:33N 55°13' E 012°60'10 9.7
2016-Aug-21 19:33N 55°16' E 012°44'8 7.8
2016-Aug-21 18:33N 55°24' E 012°40'9 9.0
2016-Aug-21 17:33N 55°32' E 012°42'9 8.6
2016-Aug-21 16:33N 55°41' E 012°41'9 8.9
2016-Aug-21 15:33N 55°50' E 012°40'9 8.8
2016-Aug-21 14:33N 55°59' E 012°38'7 7.0
2016-Aug-21 13:33N 56°05' E 012°34'8 8.1
2016-Aug-21 12:33N 56°10' E 012°22'10 9.8
2016-Aug-21 11:33N 56°16' E 012°08'9 9.3
2016-Aug-21 10:33N 56°24' E 011°60'10 9.8
2016-Aug-21 09:33N 56°33' E 011°56'10 9.5
2016-Aug-21 08:33N 56°43' E 011°53'10 9.7
2016-Aug-21 07:33N 56°52' E 011°48'10 9.7
2016-Aug-21 06:33N 57°01' E 011°41'9 9.5
2016-Aug-21 05:33N 57°10' E 011°36'9 9.2
2016-Aug-21 04:33N 57°19' E 011°30'9 9.0
2016-Aug-21 03:33N 57°27' E 011°23'9 8.9
2016-Aug-21 02:33N 57°33' E 011°12'9 9.1
2016-Aug-21 01:33N 57°40' E 010°59'9 8.8
2016-Aug-21 00:33N 57°46' E 010°47'9 9.4
2016-Aug-20 23:33N 57°46' E 010°30'  
Track history (hours):
 
Tides and Currents Weather Stations Pressure Air Temp Water Temp Dewpoint Dewpoint Depression Visibility Wind Speed Wind Dir Waves Ship Positions

Flinterbothnia

Last reported at 2016-Aug-30 14:21 UTC. Time now 2016-Aug-30 22:35 UTC.
Position N 45°58' W 001°02'.

Length 82 m; draft 4.7 m.

Type: Ship (hazmat cat C). MMSI: 244741000.

Date/timePositionNaut miles runAvg speedWind from/ knotsBaromVisibWave heightAir tempDewpointWater temp
2016-Aug-30 14:21N 45°58' W 001°02'7 9.4
2016-Aug-30 13:33N 46°01' W 001°12'8 7.9
2016-Aug-30 12:33N 46°06' W 001°21'8 8.2
2016-Aug-30 11:32N 46°07' W 001°33'9 9.1
2016-Aug-30 10:33N 46°10' W 001°45'9 9.0
2016-Aug-30 09:33N 46°16' W 001°55'9 9.0
2016-Aug-30 08:33N 46°21' W 002°05'9 8.9
2016-Aug-30 07:33N 46°27' W 002°16'9 9.0
2016-Aug-30 06:33N 46°32' W 002°26'9 8.7
2016-Aug-30 05:33N 46°38' W 002°36'9 8.9
2016-Aug-30 04:33N 46°43' W 002°46'9 8.9
2016-Aug-30 03:31N 46°49' W 002°56'9 8.9
2016-Aug-30 02:33N 46°55' W 003°06'9 8.9
2016-Aug-30 01:33N 47°00' W 003°16'9 9.0
2016-Aug-30 00:33N 47°06' W 003°26'9 8.8
2016-Aug-29 23:33N 47°12' W 003°36'8 8.6
2016-Aug-29 22:33N 47°17' W 003°46'9 8.8
2016-Aug-29 21:32N 47°23' W 003°56'9 8.7
2016-Aug-29 20:31N 47°28' W 004°06'9 8.8
2016-Aug-29 19:30N 47°34' W 004°16'9 8.9
2016-Aug-29 18:31N 47°39' W 004°27'18 9.1
2016-Aug-29 16:33N 47°51' W 004°47'10 9.8
2016-Aug-29 15:33N 47°57' W 004°58'10 9.6
2016-Aug-29 14:34N 48°03' W 005°09'9 8.7
2016-Aug-29 13:30N 48°09' W 005°20'41 8.3
2016-Aug-29 08:33N 48°45' W 005°52'1110.0
2016-Aug-29 07:28N 48°53' W 005°43'1010.4
2016-Aug-29 06:33N 48°58' W 005°30'10 9.7
2016-Aug-29 05:33N 49°03' W 005°17'9 9.3
2016-Aug-29 04:33N 49°08' W 005°05'9 8.7
2016-Aug-29 03:28N 49°12' W 004°52'62 8.7
2016-Aug-28 20:20N 49°45' W 003°30'8 9.1
2016-Aug-28 19:26N 49°48' W 003°19'16 7.9
2016-Aug-28 17:25N 49°56' W 002°57'6 6.8
2016-Aug-28 16:29N 49°58' W 002°48'97 8.8
2016-Aug-28 05:28N 50°28' W 000°23'7 7.8
2016-Aug-28 04:33N 50°30' W 000°12'8 8.0
2016-Aug-28 03:33N 50°32' E 000°00'8 8.6
2016-Aug-28 02:33N 50°35' E 000°13'10 9.6
2016-Aug-28 01:33N 50°38' E 000°27'2110.2
2016-Aug-27 23:31N 50°48' E 000°55'10 9.7
2016-Aug-27 22:31N 50°54' E 001°08'9 9.0
2016-Aug-27 21:33N 50°60' E 001°18'8 8.0
2016-Aug-27 20:33N 51°05' E 001°28'8 7.9
2016-Aug-27 19:33N 51°10' E 001°38'8 8.3
2016-Aug-27 18:33N 51°16' E 001°47'9 9.5
2016-Aug-27 17:33N 51°24' E 001°56'1110.7
2016-Aug-27 16:33N 51°32' E 002°06'1111.1
2016-Aug-27 15:33N 51°41' E 002°18'1111.1
2016-Aug-27 14:33N 51°49' E 002°29'1010.5
2016-Aug-27 13:33N 51°58' E 002°39'22 9.3
2016-Aug-27 11:14N 52°15' E 003°01'6 8.7
2016-Aug-27 10:32N 52°19' E 003°07'10 8.5
2016-Aug-27 09:20N 52°27' E 003°18'7 8.6
2016-Aug-27 08:33N 52°33' E 003°25'9 9.2
2016-Aug-27 07:33N 52°40' E 003°34'1010.0
2016-Aug-27 06:33N 52°47' E 003°45'2210.6
2016-Aug-27 04:31N 53°03' E 004°10'1010.6
2016-Aug-27 03:32N 53°10' E 004°22'1010.0
2016-Aug-27 02:33N 53°19' E 004°30'10 9.3
2016-Aug-27 01:28N 53°27' E 004°39'8 8.9
2016-Aug-27 00:33N 53°31' E 004°51'8 8.5
2016-Aug-26 23:34N 53°34' E 005°05'9 8.8
2016-Aug-26 22:33N 53°37' E 005°19'10 9.6
2016-Aug-26 21:33N 53°40' E 005°34'1010.3
2016-Aug-26 20:33N 53°43' E 005°51'1010.5
2016-Aug-26 19:34N 53°46' E 006°07'1010.3
2016-Aug-26 18:33N 53°49' E 006°24'10 9.9
2016-Aug-26 17:33N 53°52' E 006°40'9 9.3
2016-Aug-26 16:33N 53°54' E 006°56'9 8.7
2016-Aug-26 15:33N 53°56' E 007°10'9 8.4
2016-Aug-26 14:32N 53°58' E 007°24'8 8.4
2016-Aug-26 13:33N 54°00' E 007°38'9 8.7
2016-Aug-26 12:33N 54°01' E 007°52'9 9.4
2016-Aug-26 11:33N 54°01' E 008°08'1110.6
2016-Aug-26 10:33N 53°59' E 008°26'1110.9
2016-Aug-26 09:33N 53°54' E 008°42'1010.5
2016-Aug-26 08:33N 53°51' E 008°59'6 6.0
2016-Aug-26 07:34N 53°54' E 009°09'2 1.7
2016-Aug-26 06:33N 53°55' E 009°11'33 7.9
2016-Aug-26 02:20N 54°21' E 009°46'6 7.4
2016-Aug-26 01:33N 54°21' E 009°55'8 7.5
2016-Aug-26 00:33N 54°22' E 010°08'1 1.4
2016-Aug-25 23:33N 54°22' E 010°10'9 9.0
2016-Aug-25 22:31N 54°30' E 010°19'1010.1
2016-Aug-25 21:33N 54°34' E 010°35'1010.1
2016-Aug-25 20:33N 54°35' E 010°52'1010.1
2016-Aug-25 19:33N 54°35' E 011°09'1111.2
2016-Aug-25 18:33N 54°32' E 011°28'1110.5
2016-Aug-25 17:33N 54°28' E 011°45'1010.3
2016-Aug-25 16:33N 54°27' E 012°02'9 9.2
2016-Aug-25 15:33N 54°33' E 012°14'9 9.3
2016-Aug-25 14:33N 54°38' E 012°27'1110.7
2016-Aug-25 13:33N 54°40' E 012°45'1010.5
2016-Aug-25 12:33N 54°42' E 013°03'1010.5
2016-Aug-25 11:33N 54°43' E 013°21'1010.1
2016-Aug-25 10:33N 54°42' E 013°39'10 9.9
2016-Aug-25 09:33N 54°41' E 013°56'1010.4
2016-Aug-25 08:33N 54°39' E 014°13'1310.4
2016-Aug-25 07:19N 54°38' E 014°36'28 9.8
2016-Aug-25 04:30N 54°43' E 015°23'9 9.9
2016-Aug-25 03:33N 54°44' E 015°39'10 9.7
2016-Aug-25 02:33N 54°46' E 015°55'10 9.6
2016-Aug-25 01:31N 54°48' E 016°13'11 9.7
2016-Aug-25 00:23N 54°50' E 016°31'8 9.8
2016-Aug-24 23:33N 54°51' E 016°45'1010.0
2016-Aug-24 22:31N 54°53' E 017°03'1010.1
2016-Aug-24 21:33N 54°54' E 017°19'1010.1
2016-Aug-24 20:33N 54°54' E 017°37'1010.1
2016-Aug-24 19:33N 54°54' E 017°55'1010.2
2016-Aug-24 18:33N 54°53' E 018°12'1010.0
2016-Aug-24 17:33N 54°52' E 018°29'1010.3
2016-Aug-24 16:33N 54°46' E 018°44'10 9.5
2016-Aug-24 15:33N 54°40' E 018°57'10 9.9
2016-Aug-24 14:33N 54°32' E 018°48'9 9.2
2016-Aug-24 13:33N 54°32' E 018°32'0 0.2
2016-Aug-24 12:33N 54°32' E 018°31'0 0.0
2016-Aug-24 11:33N 54°32' E 018°31'0 0.0
2016-Aug-24 10:33N 54°32' E 018°31'0 0.0
2016-Aug-24 09:33N 54°32' E 018°31'0 0.0
2016-Aug-24 08:33N 54°32' E 018°31'0 0.0
2016-Aug-24 07:33N 54°32' E 018°31'0 0.0
2016-Aug-24 06:33N 54°32' E 018°31'0 0.0
2016-Aug-24 04:33N 54°32' E 018°31'0 0.0
2016-Aug-24 03:33N 54°32' E 018°31'0 0.0
2016-Aug-24 02:33N 54°32' E 018°31'0 0.0
2016-Aug-24 01:33N 54°32' E 018°31'0 0.0
2016-Aug-24 00:33N 54°32' E 018°31'0 0.0
2016-Aug-23 23:33N 54°32' E 018°31'0 0.0
2016-Aug-23 22:33N 54°32' E 018°31'0 0.0
2016-Aug-23 21:33N 54°32' E 018°31'0 0.0
2016-Aug-23 20:33N 54°32' E 018°31'0 0.0
2016-Aug-23 19:33N 54°32' E 018°31'0 0.0
2016-Aug-23 18:33N 54°32' E 018°31'0 0.0
2016-Aug-23 17:33N 54°32' E 018°31'0 0.0
2016-Aug-23 16:33N 54°32' E 018°31'0 0.0
2016-Aug-23 15:33N 54°32' E 018°31'0 0.0
2016-Aug-23 14:33N 54°32' E 018°31'0 0.0
2016-Aug-23 13:33N 54°32' E 018°31'0 0.0
2016-Aug-23 12:33N 54°32' E 018°31'0 0.0
2016-Aug-23 11:33N 54°32' E 018°31'0 0.0
2016-Aug-23 10:33N 54°32' E 018°31'0 0.0
2016-Aug-23 09:33N 54°32' E 018°31'0 0.0
2016-Aug-23 08:33N 54°32' E 018°31'0 0.0
2016-Aug-23 07:33N 54°32' E 018°31'0 0.0
2016-Aug-23 06:33N 54°32' E 018°31'0 0.0
2016-Aug-23 05:33N 54°32' E 018°31'0 0.0
2016-Aug-23 04:33N 54°32' E 018°31'0 0.0
2016-Aug-23 03:33N 54°32' E 018°31'0 0.0
2016-Aug-23 02:33N 54°32' E 018°31'0 0.0
2016-Aug-23 01:33N 54°32' E 018°31'0 0.0
2016-Aug-23 00:33N 54°32' E 018°31'0 0.0
2016-Aug-22 23:33N 54°32' E 018°31'0 0.0
2016-Aug-22 22:33N 54°32' E 018°31'0 0.0
2016-Aug-22 21:33N 54°32' E 018°31'0 0.0
2016-Aug-22 20:33N 54°32' E 018°31'5 4.7
2016-Aug-22 19:33N 54°32' E 018°39'9 8.8
2016-Aug-22 18:33N 54°36' E 018°53'7 7.2
2016-Aug-22 17:33N 54°43' E 018°50'10 9.5
2016-Aug-22 16:33N 54°49' E 018°37'10 9.6
2016-Aug-22 15:33N 54°53' E 018°21'1010.0
2016-Aug-22 14:32N 54°53' E 018°04'11 9.8
2016-Aug-22 13:23N 54°52' E 017°44'78 9.8
2016-Aug-22 05:27N 54°51' E 015°29'9 9.9
2016-Aug-22 04:33N 54°52' E 015°13'1010.1
2016-Aug-22 03:33N 54°54' E 014°56'1010.0
2016-Aug-22 02:33N 54°55' E 014°39'1010.3
2016-Aug-22 01:33N 54°57' E 014°21'1010.0
2016-Aug-22 00:33N 54°58' E 014°04'1010.2
2016-Aug-21 23:33N 55°01' E 013°47'10 9.6
2016-Aug-21 22:33N 55°05' E 013°32'10 9.9
2016-Aug-21 21:33N 55°09' E 013°16'10 9.9
2016-Aug-21 20:33N 55°13' E 012°60'10 9.7
2016-Aug-21 19:33N 55°16' E 012°44'8 7.8
2016-Aug-21 18:33N 55°24' E 012°40'9 9.0
2016-Aug-21 17:33N 55°32' E 012°42'9 8.6
2016-Aug-21 16:33N 55°41' E 012°41'9 8.9
2016-Aug-21 15:33N 55°50' E 012°40'9 8.8
2016-Aug-21 14:33N 55°59' E 012°38'7 7.0
2016-Aug-21 13:33N 56°05' E 012°34'8 8.1
2016-Aug-21 12:33N 56°10' E 012°22'10 9.8
2016-Aug-21 11:33N 56°16' E 012°08'9 9.3
2016-Aug-21 10:33N 56°24' E 011°60'10 9.8
2016-Aug-21 09:33N 56°33' E 011°56'10 9.5
2016-Aug-21 08:33N 56°43' E 011°53'10 9.7
2016-Aug-21 07:33N 56°52' E 011°48'10 9.7
2016-Aug-21 06:33N 57°01' E 011°41'9 9.5
2016-Aug-21 05:33N 57°10' E 011°36'9 9.2
2016-Aug-21 04:33N 57°19' E 011°30'9 9.0
2016-Aug-21 03:33N 57°27' E 011°23'9 8.9
2016-Aug-21 02:33N 57°33' E 011°12'9 9.1
2016-Aug-21 01:33N 57°40' E 010°59'9 8.8
2016-Aug-21 00:33N 57°46' E 010°47'9 9.4
2016-Aug-20 23:33N 57°46' E 010°30'  

Dump ship's entire track history